createdAt,value
2019-03-09T00:02:27.248Z,100134.86
2019-03-09T00:04:56.848Z,100131.19
2019-03-09T00:07:26.498Z,100128.70
2019-03-09T00:09:55.953Z,100123.19
2019-03-09T00:12:25.495Z,100109.47
2019-03-09T00:14:54.985Z,100099.02
2019-03-09T00:17:24.564Z,100098.19
2019-03-09T00:19:54.311Z,100095.73
2019-03-09T00:22:23.875Z,100083.95
2019-03-09T00:25:30.338Z,100080.67
2019-03-09T00:28:10.974Z,100081.59
2019-03-09T00:30:48.650Z,100080.99
2019-03-09T00:33:18.065Z,100062.73
2019-03-09T00:35:47.801Z,100065.91
2019-03-09T00:38:17.492Z,100056.08
2019-03-09T00:40:46.918Z,100048.80
2019-03-09T00:43:16.542Z,100046.75
2019-03-09T00:45:46.094Z,100045.42
2019-03-09T00:48:15.869Z,100040.39
2019-03-09T00:50:46.312Z,100036.29
2019-03-09T00:53:15.782Z,100025.53
2019-03-09T00:55:45.192Z,100025.85
2019-03-09T00:58:14.618Z,100030.05
2019-03-09T01:00:44.320Z,100021.34
2019-03-09T01:03:13.871Z,100026.97
2019-03-09T01:05:46.030Z,100013.34
2019-03-09T01:08:15.733Z,100012.84
2019-03-09T01:10:49.012Z,100008.23
2019-03-09T01:13:18.782Z,100004.22
2019-03-09T01:15:48.569Z,99997.38
2019-03-09T01:18:18.983Z,99990.83
2019-03-09T01:20:48.521Z,99989.48
2019-03-09T01:23:18.168Z,99982.72
2019-03-09T01:25:47.759Z,99975.45
2019-03-09T01:28:17.289Z,99963.56
2019-03-09T01:30:46.868Z,99954.36
2019-03-09T01:33:16.628Z,99955.17
2019-03-09T01:35:46.132Z,99940.83
2019-03-09T01:38:16.005Z,99948.72
2019-03-09T01:40:45.618Z,99942.27
2019-03-09T01:43:15.203Z,99926.80
2019-03-09T01:45:44.650Z,99926.92
2019-03-09T01:48:14.220Z,99924.87
2019-03-09T01:50:43.731Z,99926.17
2019-03-09T01:53:13.271Z,99912.65
2019-03-09T01:55:42.792Z,99919.94
2019-03-09T01:58:12.372Z,99910.91
2019-03-09T02:00:41.831Z,99915.92
2019-03-09T02:03:11.291Z,99895.72
2019-03-09T02:05:40.722Z,99888.80
2019-03-09T02:08:10.245Z,99868.28
2019-03-09T02:10:39.599Z,99844.22
2019-03-09T02:13:09.234Z,99851.89
2019-03-09T02:15:38.781Z,99853.45
2019-03-09T02:18:08.322Z,99841.37
2019-03-09T02:20:37.767Z,99839.24
2019-03-09T02:23:07.332Z,99834.33
2019-03-09T02:25:36.838Z,99827.77
2019-03-09T02:28:06.306Z,99825.38
2019-03-09T02:30:35.840Z,99827.19
2019-03-09T02:33:05.645Z,99826.50
2019-03-09T02:35:35.079Z,99831.00
2019-03-09T02:38:26.545Z,99810.23
2019-03-09T02:40:58.027Z,99811.63
2019-03-09T02:43:27.433Z,99804.13
2019-03-09T02:45:56.952Z,99806.16
2019-03-09T02:48:26.597Z,99796.55
2019-03-09T02:50:56.436Z,99797.75
2019-03-09T02:53:27.419Z,99805.97
2019-03-09T02:55:57.153Z,99811.08
2019-03-09T02:58:26.575Z,99810.02
2019-03-09T03:01:10.219Z,99795.80
2019-03-09T03:03:39.679Z,99797.16
2019-03-09T03:06:09.160Z,99806.47
2019-03-09T03:08:38.545Z,99799.62
2019-03-09T03:11:08.017Z,99786.39
2019-03-09T03:13:37.454Z,99790.42
2019-03-09T03:16:06.775Z,99790.16
2019-03-09T03:18:36.264Z,99797.14
2019-03-09T03:21:05.783Z,99796.70
2019-03-09T03:23:35.351Z,99806.17
2019-03-09T03:26:04.978Z,99793.04
2019-03-09T03:28:34.472Z,99802.83
2019-03-09T03:31:04.176Z,99787.46
2019-03-09T03:33:33.844Z,99792.80
2019-03-09T03:36:03.235Z,99792.38
2019-03-09T03:38:32.774Z,99787.80
2019-03-09T03:41:02.374Z,99785.20
2019-03-09T03:43:31.905Z,99786.95
2019-03-09T03:46:01.482Z,99769.14
2019-03-09T03:48:30.969Z,99756.45
2019-03-09T03:51:00.355Z,99766.95
2019-03-09T03:53:29.852Z,99766.64
2019-03-09T03:55:59.303Z,99773.70
2019-03-09T03:58:28.770Z,99773.05
2019-03-09T04:00:58.314Z,99776.81
2019-03-09T04:03:27.772Z,99785.21
2019-03-09T04:05:57.201Z,99777.63
2019-03-09T04:08:27.070Z,99776.10
2019-03-09T04:10:56.458Z,99776.81
2019-03-09T04:13:25.783Z,99789.98
2019-03-09T04:15:55.345Z,99788.21
2019-03-09T04:18:24.710Z,99793.64
2019-03-09T04:20:54.136Z,99795.28
2019-03-09T04:23:23.639Z,99800.53
2019-03-09T04:25:53.137Z,99786.34
2019-03-09T04:28:22.679Z,99800.47
2019-03-09T04:30:52.242Z,99818.41
2019-03-09T04:33:21.595Z,99817.81
2019-03-09T04:35:51.070Z,99813.73
2019-03-09T04:38:20.549Z,99827.79
2019-03-09T04:40:50.035Z,99830.14
2019-03-09T04:43:19.592Z,99834.00
2019-03-09T04:45:48.967Z,99846.99
2019-03-09T04:48:18.419Z,99858.11
2019-03-09T04:50:47.783Z,99861.95
2019-03-09T04:53:17.172Z,99855.27
2019-03-09T04:55:46.581Z,99852.34
2019-03-09T04:58:15.987Z,99856.62
2019-03-09T05:00:45.729Z,99860.47
2019-03-09T05:03:15.219Z,99866.31
2019-03-09T05:05:44.707Z,99892.84
2019-03-09T05:08:38.639Z,99882.38
2019-03-09T05:11:14.994Z,99904.11
2019-03-09T05:14:14.486Z,99908.85
2019-03-09T05:16:43.928Z,99900.14
2019-03-09T05:19:13.456Z,99917.94
2019-03-09T05:21:42.988Z,99920.19
2019-03-09T05:24:12.548Z,99929.39
2019-03-09T05:26:42.013Z,99915.67
2019-03-09T05:29:11.407Z,99934.05
2019-03-09T05:31:40.921Z,99928.12
2019-03-09T05:34:10.392Z,99930.13
2019-03-09T05:36:39.902Z,99941.06
2019-03-09T05:39:09.362Z,99930.45
2019-03-09T05:41:38.926Z,99937.94
2019-03-09T05:44:08.402Z,99936.98
2019-03-09T05:46:37.824Z,99915.03
2019-03-09T05:49:07.171Z,99925.22
2019-03-09T05:51:36.804Z,99927.58
2019-03-09T05:54:06.161Z,99933.05
2019-03-09T05:56:35.574Z,99932.15
2019-03-09T05:59:05.121Z,99935.91
2019-03-09T06:01:34.524Z,99953.06
2019-03-09T06:04:03.863Z,99970.09
2019-03-09T06:06:33.440Z,99974.60
2019-03-09T06:09:02.953Z,99971.52
2019-03-09T06:11:33.279Z,99975.23
2019-03-09T06:14:02.794Z,99975.92
2019-03-09T06:16:32.349Z,99984.93
2019-03-09T06:19:01.919Z,99984.44
2019-03-09T06:21:31.382Z,99979.95
2019-03-09T06:24:00.978Z,99973.70
2019-03-09T06:26:30.443Z,99970.61
2019-03-09T06:28:59.999Z,99966.42
2019-03-09T06:31:29.554Z,99986.23
2019-03-09T06:33:59.042Z,99996.83
2019-03-09T06:37:05.312Z,99998.22
2019-03-09T06:39:46.492Z,100013.48
2019-03-09T06:42:51.583Z,100002.55
2019-03-09T06:45:21.368Z,100010.84
2019-03-09T06:47:50.918Z,100012.94
2019-03-09T06:50:21.380Z,100021.84
2019-03-09T06:52:50.847Z,100007.43
2019-03-09T06:55:20.241Z,100032.47
2019-03-09T06:57:49.756Z,100037.27
2019-03-09T07:00:41.886Z,100012.91
2019-03-09T07:03:11.936Z,100011.18
2019-03-09T07:05:41.431Z,100020.67
2019-03-09T07:08:11.047Z,100018.93
2019-03-09T07:10:40.408Z,100020.19
2019-03-09T07:13:09.907Z,100039.67
2019-03-09T07:15:41.581Z,100046.04
2019-03-09T07:18:21.845Z,100061.75
2019-03-09T07:20:51.326Z,100066.89
2019-03-09T07:23:20.877Z,100047.55
2019-03-09T07:25:50.316Z,100047.73
2019-03-09T07:28:19.727Z,100056.51
2019-03-09T07:30:49.145Z,100068.53
2019-03-09T07:33:18.693Z,100079.63
2019-03-09T07:35:48.260Z,100074.72
2019-03-09T07:38:17.935Z,100084.33
2019-03-09T07:40:47.580Z,100098.83
2019-03-09T07:43:17.090Z,100099.77
2019-03-09T07:45:46.610Z,100080.10
2019-03-09T07:48:16.084Z,100095.59
2019-03-09T07:50:45.485Z,100104.22
2019-03-09T07:53:14.976Z,100097.33
2019-03-09T07:55:44.490Z,100075.91
2019-03-09T07:58:14.113Z,100082.96
2019-03-09T08:00:43.523Z,100094.80
2019-03-09T08:03:13.505Z,100099.26
2019-03-09T08:05:43.066Z,100099.03
2019-03-09T08:08:12.636Z,100104.59
2019-03-09T08:10:42.229Z,100102.69
2019-03-09T08:13:11.816Z,100101.20
2019-03-09T08:15:41.342Z,100083.09
2019-03-09T08:18:10.829Z,100075.20
2019-03-09T08:20:40.371Z,100080.98
2019-03-09T08:23:09.789Z,100078.80
2019-03-09T08:25:39.216Z,100081.19
2019-03-09T08:28:08.761Z,100098.43
2019-03-09T08:30:38.310Z,100103.08
2019-03-09T08:33:07.883Z,100094.99
2019-03-09T08:35:37.434Z,100084.59
2019-03-09T08:38:06.980Z,100077.42
2019-03-09T08:40:36.546Z,100085.48
2019-03-09T08:43:06.175Z,100069.83
2019-03-09T08:45:35.742Z,100093.52
2019-03-09T08:48:05.272Z,100080.87
2019-03-09T08:50:34.899Z,100075.06
2019-03-09T08:53:04.365Z,100102.32
2019-03-09T08:55:33.810Z,100091.02
2019-03-09T08:58:03.338Z,100089.81
2019-03-09T09:00:33.535Z,100079.41
2019-03-09T09:03:03.199Z,100086.23
2019-03-09T09:05:32.628Z,100076.09
2019-03-09T09:08:03.816Z,100073.75
2019-03-09T09:10:33.577Z,100053.80
2019-03-09T09:13:03.065Z,100040.26
2019-03-09T09:15:32.508Z,100065.34
2019-03-09T09:18:01.924Z,100058.06
2019-03-09T09:20:31.475Z,100069.31
2019-03-09T09:23:00.849Z,100066.93
2019-03-09T09:25:30.449Z,100075.53
2019-03-09T09:28:00.021Z,100077.48
2019-03-09T09:30:29.579Z,100061.50
2019-03-09T09:32:59.147Z,100066.52
2019-03-09T09:35:32.747Z,100069.42
2019-03-09T09:38:02.431Z,100071.81
2019-03-09T09:40:31.907Z,100072.18
2019-03-09T09:43:01.542Z,100060.82
2019-03-09T09:45:30.965Z,100085.06
2019-03-09T09:48:00.482Z,100077.13
2019-03-09T09:50:30.041Z,100093.34
2019-03-09T09:52:59.655Z,100092.67
2019-03-09T09:55:29.876Z,100084.20
2019-03-09T09:58:03.106Z,100085.23
2019-03-09T10:00:32.712Z,100082.69
2019-03-09T10:03:02.123Z,100081.28
2019-03-09T10:05:31.746Z,100082.84
2019-03-09T10:08:01.246Z,100083.30
2019-03-09T10:10:30.733Z,100077.48
2019-03-09T10:13:00.288Z,100069.09
2019-03-09T10:15:30.029Z,100063.08
2019-03-09T10:17:59.585Z,100057.77
2019-03-09T10:20:29.120Z,100034.14
2019-03-09T10:23:04.207Z,100037.04
2019-03-09T10:25:29.798Z,100039.81
2019-03-09T10:27:59.393Z,100047.56
2019-03-09T10:30:28.998Z,100052.38
2019-03-09T10:32:58.620Z,100055.38
2019-03-09T10:35:28.161Z,100046.22
2019-03-09T10:37:57.576Z,100065.45
2019-03-09T10:40:27.172Z,100069.12
2019-03-09T10:42:56.671Z,100052.53
2019-03-09T10:45:26.133Z,100073.20
2019-03-09T10:47:55.641Z,100069.90
2019-03-09T10:50:26.091Z,100064.41
2019-03-09T10:52:55.661Z,100061.20
2019-03-09T10:55:25.075Z,100061.66
2019-03-09T10:57:54.786Z,100057.53
2019-03-09T11:00:29.635Z,100066.80
2019-03-09T11:02:59.181Z,100064.25
2019-03-09T11:05:28.685Z,100070.42
2019-03-09T11:07:58.160Z,100072.23
2019-03-09T11:10:27.700Z,100069.92
2019-03-09T11:12:57.379Z,100070.61
2019-03-09T11:15:26.792Z,100045.08
2019-03-09T11:17:56.402Z,100040.25
2019-03-09T11:20:25.893Z,100042.65
2019-03-09T11:22:55.390Z,100033.03
2019-03-09T11:25:24.925Z,100041.83
2019-03-09T11:27:54.521Z,100041.09
2019-03-09T11:30:25.217Z,100056.60
2019-03-09T11:32:54.805Z,100061.33
2019-03-09T11:35:24.568Z,100055.46
2019-03-09T11:37:54.086Z,100047.53
2019-03-09T11:40:23.652Z,100029.95
2019-03-09T11:42:53.199Z,100046.63
2019-03-09T11:45:22.774Z,100058.47
2019-03-09T11:47:52.389Z,100058.06
2019-03-09T11:50:21.981Z,100071.75
2019-03-09T11:52:51.667Z,100060.83
2019-03-09T11:55:21.197Z,100036.70
2019-03-09T11:57:52.696Z,100047.03
2019-03-09T12:00:26.025Z,100039.96
2019-03-09T12:02:55.597Z,100046.55
2019-03-09T12:05:25.196Z,100037.30
2019-03-09T12:07:54.755Z,100034.36
2019-03-09T12:10:24.260Z,100028.84
2019-03-09T12:12:54.028Z,100019.66
2019-03-09T12:15:23.779Z,100020.63
2019-03-09T12:17:53.354Z,100021.75
2019-03-09T12:20:24.959Z,100007.89
2019-03-09T12:23:01.012Z,100009.05
2019-03-09T12:25:26.182Z,99996.55
2019-03-09T12:27:55.752Z,99988.56
2019-03-09T12:30:25.337Z,99975.90
2019-03-09T12:32:54.889Z,99974.87
2019-03-09T12:35:24.402Z,99962.55
2019-03-09T12:37:53.942Z,99964.97
2019-03-09T12:40:23.358Z,99951.58
2019-03-09T12:42:52.959Z,99933.23
2019-03-09T12:45:22.609Z,99935.13
2019-03-09T12:47:52.363Z,99926.27
2019-03-09T12:50:22.248Z,99914.35
2019-03-09T12:52:51.887Z,99912.94
2019-03-09T12:55:21.433Z,99915.20
2019-03-09T12:57:51.077Z,99902.77
2019-03-09T13:00:20.857Z,99896.34
2019-03-09T13:02:50.359Z,99899.13
2019-03-09T13:05:20.068Z,99892.03
2019-03-09T13:07:49.661Z,99865.45
2019-03-09T13:10:19.276Z,99847.47
2019-03-09T13:12:49.035Z,99827.09
2019-03-09T13:15:18.834Z,99816.14
2019-03-09T13:17:48.498Z,99803.37
2019-03-09T13:20:18.240Z,99790.97
2019-03-09T13:22:47.878Z,99776.19
2019-03-09T13:25:17.365Z,99763.03
2019-03-09T13:27:46.881Z,99770.33
2019-03-09T13:30:18.088Z,99754.12
2019-03-09T13:32:47.772Z,99741.73
2019-03-09T13:35:17.595Z,99750.30
2019-03-09T13:37:47.272Z,99732.50
2019-03-09T13:40:17.227Z,99746.05
2019-03-09T13:42:46.983Z,99754.84
2019-03-09T13:45:16.774Z,99743.73
2019-03-09T13:47:46.709Z,99759.55
2019-03-09T13:50:16.167Z,99755.21
2019-03-09T13:52:45.815Z,99753.16
2019-03-09T13:55:15.623Z,99746.03
2019-03-09T13:57:45.430Z,99780.21
2019-03-09T14:00:15.795Z,99753.30
2019-03-09T14:02:45.599Z,99756.18
2019-03-09T14:05:15.455Z,99763.92
2019-03-09T14:07:45.334Z,99726.28
2019-03-09T14:10:16.062Z,99718.31
2019-03-09T14:12:45.802Z,99717.74
2019-03-09T14:15:15.733Z,99723.59
2019-03-09T14:17:45.386Z,99703.86
2019-03-09T14:20:15.399Z,99704.63
2019-03-09T14:22:45.268Z,99696.39
2019-03-09T14:25:15.206Z,99691.01
2019-03-09T14:27:45.210Z,99685.58
2019-03-09T14:30:15.578Z,99676.73
2019-03-09T14:32:45.446Z,99672.58
2019-03-09T14:35:15.541Z,99667.34
2019-03-09T14:37:45.435Z,99672.53
2019-03-09T14:40:15.578Z,99676.89
2019-03-09T14:42:45.347Z,99675.70
2019-03-09T14:45:16.492Z,99647.32
2019-03-09T14:47:46.257Z,99656.88
2019-03-09T14:50:16.338Z,99656.91
2019-03-09T14:52:46.110Z,99647.68
2019-03-09T14:55:15.980Z,99645.69
2019-03-09T14:57:45.833Z,99633.17
2019-03-09T15:00:18.057Z,99651.70
2019-03-09T15:02:47.870Z,99657.16
2019-03-09T15:05:17.765Z,99706.48
2019-03-09T15:07:47.631Z,99689.72
2019-03-09T15:10:17.701Z,99703.45
2019-03-09T15:12:47.423Z,99659.11
2019-03-09T15:15:17.390Z,99689.90
2019-03-09T15:17:47.122Z,99693.06
2019-03-09T15:20:17.443Z,99702.44
2019-03-09T15:22:47.382Z,99720.77
2019-03-09T15:25:17.213Z,99750.27
2019-03-09T15:27:46.967Z,99757.53
2019-03-09T15:30:17.030Z,99774.61
2019-03-09T15:32:47.056Z,99781.61
2019-03-09T15:35:17.489Z,99818.19
2019-03-09T15:37:47.268Z,99798.11
2019-03-09T15:40:17.633Z,99800.39
2019-03-09T15:42:47.628Z,99782.55
2019-03-09T15:45:17.981Z,99851.77
2019-03-09T15:47:48.049Z,99819.92
2019-03-09T15:50:18.055Z,99811.55
2019-03-09T15:52:47.980Z,99802.42
2019-03-09T15:55:18.144Z,99805.86
2019-03-09T15:57:48.205Z,99825.44
2019-03-09T16:00:19.040Z,99843.36
2019-03-09T16:02:49.117Z,99855.86
2019-03-09T16:05:19.200Z,99845.23
2019-03-09T16:07:49.090Z,99832.38
2019-03-09T16:10:19.059Z,99821.55
2019-03-09T16:12:48.920Z,99820.92
2019-03-09T16:15:18.918Z,99832.58
2019-03-09T16:17:48.843Z,99817.03
2019-03-09T16:20:18.713Z,99845.36
2019-03-09T16:22:49.553Z,99844.69
2019-03-09T16:25:19.632Z,99877.53
2019-03-09T16:27:49.496Z,99878.53
2019-03-09T16:30:19.732Z,99877.05
2019-03-09T16:32:49.758Z,99870.89
2019-03-09T16:35:19.846Z,99898.14
2019-03-09T16:37:49.800Z,99882.47
2019-03-09T16:40:19.694Z,99902.24
2019-03-09T16:42:49.812Z,99928.39
2019-03-09T16:45:19.882Z,99939.62
2019-03-09T16:47:50.276Z,99970.98
2019-03-09T16:50:20.415Z,99959.50
2019-03-09T16:52:50.304Z,99969.69
2019-03-09T16:55:20.171Z,99986.72
2019-03-09T16:57:50.130Z,100000.20
2019-03-09T17:00:20.479Z,100008.88
2019-03-09T17:02:50.591Z,100006.22
2019-03-09T17:05:20.482Z,100025.61
2019-03-09T17:07:50.724Z,100036.50
2019-03-09T17:10:20.720Z,100036.81
2019-03-09T17:12:50.554Z,100026.55
2019-03-09T17:15:21.342Z,100035.16
2019-03-09T17:17:51.377Z,100057.85
2019-03-09T17:20:21.427Z,100064.11
2019-03-09T17:22:51.405Z,100084.25
2019-03-09T17:25:21.510Z,100108.36
2019-03-09T17:27:51.571Z,100126.13
2019-03-09T17:30:21.583Z,100132.92
2019-03-09T17:32:51.400Z,100149.36
2019-03-09T17:35:21.362Z,100149.87
2019-03-09T17:37:51.220Z,100156.83
2019-03-09T17:40:25.089Z,100174.62
2019-03-09T17:42:56.122Z,100194.84
2019-03-09T17:45:26.201Z,100199.06
2019-03-09T17:47:56.332Z,100217.72
2019-03-09T17:50:26.134Z,100227.28
2019-03-09T17:52:56.054Z,100231.89
2019-03-09T17:55:25.951Z,100255.31
2019-03-09T17:57:55.827Z,100255.94
2019-03-09T18:00:26.269Z,100274.13
2019-03-09T18:02:56.203Z,100279.55
2019-03-09T18:05:26.308Z,100290.12
2019-03-09T18:07:56.140Z,100288.06
2019-03-09T18:10:39.512Z,100302.41
2019-03-09T18:13:10.085Z,100303.00
2019-03-09T18:15:40.102Z,100325.95
2019-03-09T18:18:10.110Z,100326.67
2019-03-09T18:20:40.521Z,100340.39
2019-03-09T18:23:10.383Z,100335.95
2019-03-09T18:25:40.487Z,100351.43
2019-03-09T18:28:10.442Z,100354.83
2019-03-09T18:30:41.279Z,100375.53
2019-03-09T18:33:11.233Z,100371.60
2019-03-09T18:35:41.954Z,100381.86
2019-03-09T18:38:12.007Z,100383.12
2019-03-09T18:40:41.918Z,100386.72
2019-03-09T18:43:11.980Z,100392.02
2019-03-09T18:45:42.868Z,100397.10
2019-03-09T18:48:12.742Z,100392.02
2019-03-09T18:50:43.711Z,100400.95
2019-03-09T18:53:15.976Z,100411.66
2019-03-09T18:55:46.739Z,100404.34
2019-03-09T18:58:18.171Z,100415.88
2019-03-09T19:00:48.206Z,100413.92
2019-03-09T19:03:20.974Z,100408.86
2019-03-09T19:05:50.794Z,100407.39
2019-03-09T19:08:20.754Z,100425.08
2019-03-09T19:10:50.799Z,100424.98
2019-03-09T19:13:20.890Z,100425.59
2019-03-09T19:15:50.770Z,100439.13
2019-03-09T19:18:20.713Z,100430.73
2019-03-09T19:20:50.751Z,100425.94
2019-03-09T19:23:20.745Z,100427.24
2019-03-09T19:25:50.593Z,100427.98
2019-03-09T19:28:20.505Z,100433.56
2019-03-09T19:30:50.321Z,100433.92
2019-03-09T19:33:20.147Z,100448.53
2019-03-09T19:35:50.308Z,100452.94
2019-03-09T19:38:22.160Z,100453.53
2019-03-09T19:40:53.008Z,100449.06
2019-03-09T19:43:22.844Z,100451.19
2019-03-09T19:45:52.651Z,100460.69
2019-03-09T19:48:22.606Z,100462.47
2019-03-09T19:50:52.316Z,100461.22
2019-03-09T19:53:22.742Z,100459.31
2019-03-09T19:55:52.719Z,100457.02
2019-03-09T19:58:22.646Z,100463.05
2019-03-09T20:00:52.990Z,100467.92
2019-03-09T20:03:40.491Z,100466.80
2019-03-09T20:06:10.722Z,100455.56
2019-03-09T20:08:40.911Z,100473.20
2019-03-09T20:11:11.238Z,100467.66
2019-03-09T20:13:42.032Z,100479.07
2019-03-09T20:16:12.859Z,100481.16
2019-03-09T20:18:42.748Z,100493.80
2019-03-09T20:21:12.897Z,100495.50
2019-03-09T20:23:42.765Z,100504.24
2019-03-09T20:26:12.876Z,100505.24
2019-03-09T20:28:42.726Z,100511.55
2019-03-09T20:31:12.751Z,100504.36
2019-03-09T20:33:42.618Z,100496.33
2019-03-09T20:36:22.369Z,100496.82
2019-03-09T20:38:52.253Z,100496.08
2019-03-09T20:41:36.195Z,100499.19
2019-03-09T20:44:25.946Z,100492.91
2019-03-09T20:46:56.027Z,100494.87
2019-03-09T20:49:26.048Z,100497.96
2019-03-09T20:51:55.968Z,100493.71
2019-03-09T20:54:26.292Z,100496.88
2019-03-09T20:56:56.291Z,100494.66
2019-03-09T20:59:26.125Z,100499.28
2019-03-09T21:01:56.362Z,100505.97
2019-03-09T21:04:27.410Z,100502.30
2019-03-09T21:06:57.240Z,100506.06
2019-03-09T21:09:37.422Z,100504.16
2019-03-09T21:12:11.164Z,100496.73
2019-03-09T21:14:41.087Z,100489.27
2019-03-09T21:17:11.201Z,100497.52
2019-03-09T21:19:41.000Z,100490.12
2019-03-09T21:22:10.942Z,100497.81
2019-03-09T21:24:41.158Z,100489.94
2019-03-09T21:27:10.965Z,100488.84
2019-03-09T21:29:40.894Z,100492.91
2019-03-09T21:32:10.772Z,100500.77
2019-03-09T21:34:40.447Z,100480.01
2019-03-09T21:37:10.190Z,100492.13
2019-03-09T21:39:40.101Z,100499.73
2019-03-09T21:42:09.964Z,100507.19
2019-03-09T21:44:39.746Z,100507.19
2019-03-09T21:47:09.462Z,100503.30
2019-03-09T21:49:39.272Z,100506.11
2019-03-09T21:52:09.093Z,100506.83
2019-03-09T21:54:38.923Z,100506.89
2019-03-09T21:57:08.736Z,100507.28
2019-03-09T21:59:38.415Z,100508.05
2019-03-09T22:02:08.908Z,100509.34
2019-03-09T22:04:38.740Z,100506.92
2019-03-09T22:07:08.418Z,100504.41
2019-03-09T22:09:39.603Z,100506.14
2019-03-09T22:12:09.276Z,100503.87
2019-03-09T22:14:40.140Z,100506.40
2019-03-09T22:17:09.778Z,100517.88
2019-03-09T22:19:39.438Z,100520.56
2019-03-09T22:22:10.443Z,100514.41
2019-03-09T22:25:02.554Z,100510.30
2019-03-09T22:27:33.300Z,100504.92
2019-03-09T22:30:06.832Z,100505.31
2019-03-09T22:32:38.679Z,100514.48
2019-03-09T22:35:11.144Z,100518.27
2019-03-09T22:37:44.623Z,100519.77
2019-03-09T22:40:14.521Z,100521.05
2019-03-09T22:42:45.198Z,100523.99
2019-03-09T22:45:16.329Z,100521.48
2019-03-09T22:47:45.912Z,100510.65
2019-03-09T22:50:16.108Z,100514.03
2019-03-09T22:52:45.720Z,100516.47
2019-03-09T22:55:15.298Z,100507.14
2019-03-09T22:57:45.038Z,100503.88
2019-03-09T23:00:16.820Z,100501.70
2019-03-09T23:02:52.559Z,100499.26
2019-03-09T23:05:22.028Z,100497.58
2019-03-09T23:08:10.573Z,100502.36
2019-03-09T23:10:42.263Z,100502.48
2019-03-09T23:13:14.500Z,100507.77
2019-03-09T23:15:52.381Z,100498.14
2019-03-09T23:19:10.747Z,100508.08
2019-03-09T23:21:40.819Z,100500.77
2019-03-09T23:24:22.112Z,100503.64
2019-03-09T23:26:54.823Z,100499.25
2019-03-09T23:29:30.981Z,100503.36
2019-03-09T23:32:01.455Z,100499.41
2019-03-09T23:34:32.853Z,100493.86
2019-03-09T23:37:03.556Z,100497.91
2019-03-09T23:39:34.321Z,100503.96
2019-03-09T23:42:06.753Z,100504.91
2019-03-09T23:44:36.284Z,100503.59
2019-03-09T23:47:14.166Z,100506.05
2019-03-09T23:49:43.136Z,100501.43
2019-03-09T23:52:13.509Z,100499.42
2019-03-09T23:54:43.123Z,100505.52
2019-03-09T23:57:13.558Z,100506.05
2019-03-09T23:59:45.362Z,100510.77
